01:04
Airports
Links
Donate
Help keep this website running!
PayPal
Bitcoin
METAR
KPWK 200052Z 20013G22KT 10SM CLR 04/M02 A2973 RMK AO2 SLP072 T00441017
Current Weather Conditions at KPWK
VFR 00:52:00 20-01-18
Automated station
Altimeter:29.73 hg
Temp:4.4°c 39°f
Dew point:-1.7°c 30°f
Wind:13 knots, 15 mph, 7 m/s, from 200°
Visibility:10.0 statute miles
(CLR) Clear
Past METAR reports
VFR 23:52:00 19-01-18
Automated station
Altimeter:29.74 hg
Temp:4.4°c 39°f
Dew point:-2.2°c 28°f
Wind:11 knots, 12.7 mph, 6 m/s, from 200°
Visibility:10.0 statute miles
(CLR) Clear
KPWK 192352Z 20011G21KT 10SM CLR 04/M02 A2974 RMK AO2 SLP076 T00441022 10044 20033 58008
VFR 22:52:00 19-01-18
Automated station
Altimeter:29.74 hg
Temp:3.9°c 37°f
Dew point:-2.8°c 28°f
Wind:13 knots, 15 mph, 7 m/s, from 200°
Visibility:10.0 statute miles
(CLR) Clear
KPWK 192252Z 20013KT 10SM CLR 04/M03 A2974 RMK AO2 SLP078 T00391028
VFR 21:52:00 19-01-18
Automated station
Altimeter:29.76 hg
Temp:4.4°c 39°f
Dew point:-3.3°c 27°f
Wind:13 knots, 15 mph, 7 m/s, from 210°
Visibility:10.0 statute miles
(CLR) Clear
KPWK 192152Z 21013G21KT 10SM CLR 04/M03 A2976 RMK AO2 SLP084 T00441033
VFR 20:52:00 19-01-18
Automated station
Altimeter:29.76 hg
Temp:4.4°c 39°f
Dew point:-3.9°c 27°f
Wind:11 knots, 12.7 mph, 6 m/s, from 210°
Visibility:10.0 statute miles
(CLR) Clear
KPWK 192052Z 21011G20KT 10SM CLR 04/M04 A2976 RMK AO2 SLP084 T00441039 56023
VFR 19:52:00 19-01-18
Automated station
Altimeter:29.77 hg
Temp:3.9°c 37°f
Dew point:-4.4°c 25°f
Wind:12 knots, 13.8 mph, 6 m/s, from 210°
Visibility:10.0 statute miles
(CLR) Clear
KPWK 191952Z 21012KT 10SM CLR 04/M04 A2977 RMK AO2 SLP087 T00391044
TAF
No TAF for KPWK
Forecast at KPWK
No Forecast Reports for KPWK